Timeline UpdatesTrip UpdatesNews PostsPvt Posts♥♥Travel TipsAdmin PostsConv PostsFollowed PostsChat RequestsBlog PostsPNR Posts

Disclaimer
Search
 
 
Mon Oct 20, 2014 13:38:45 ISTHomeTrainsΣChainsAtlasPNRForumGalleryNewsFAQTripsMembersLoginFeedback
No Recent News for this Train
Other Trains in the News **new
Latest...
.
Sun Jun 17, 2012 (02:11PM)
⇐ Return Journey: Train# 17610

17609/Patna - Purna Express

Time-Table HAS CHANGED.
Sep 01 2014 (10:53PM)
Change Departure Station:
Change Arrival Station:
Post a Train Travel TipPost a Train Travel Tip **new
Post a Comment/Question/Picture/VideoPost a Comment/Question/Picture/Video
Pantry/Catering
✓ Pantry Car Avbl
✓ Catering Avbl
RSA - Rake Sharing
Rake/Coach Composition
WDM; SLR; GEN; A1; B1; PC; S1; S2; S3; S4; S5; GEN; SLR
Loco
WDM#3a
News    PNR    Forum    Time-Table    Availability    Fare Chart    Map    Arr/Dep History    Trips    Gallery    ΣChains    X/O    Timeline    
Travel Time: 0h 52m    0 halts    Distance: 49 km    Avg Speed: 56 km/hr
Type: Mail/Express
Zone: SCR/South Central
Departs @ 23:00 (Avg 5m late)
Platform# ???
S      
Patna Junction/PNBE 
Arrives @ 23:52 (Avg 9m late)
Platform# ???
S      
Ara Junction/ARA 

0 halts. 12 intermediate Stations between Patna Junction and Ara Junction

Hide intermediate Stations  Show Old Time-Table

#TrkCodeStation NameX/OArrivesAvgDepartsAvgHaltPFDay#KmSpeedElevZoneAddress
1/==/PNBEPatna Junction (10)»  -23:10 23:00+5--10.05657mECRPatna 800001, Bihar
1.1/==/SCYSachiwalay Halt (2)  23:02-23:02-  12.2 5657mECRPatna, Bihar
1.2/==/PWSPhulwari Sharif (3)  23:06-23:06-  16.0 5658mECRPatna, Bihar
1.3/==/DNRDanapur (5)X  23:10-23:10-  19.4 5658mECRKhagaul, Bihar
1.4/==/NEONeora (2)  23:16-23:16-  115.4 5661mECRNational Highway 98, Bihar
1.5/==/GNHIGandhi Halt  23:20-23:20-  118.4 5658mECRPatna, Bihar
1.6/==/SDESadisopur (2)  23:24-23:24-  122.5 5664mECRSadisopur, Bihar
1.7/==/PATLPatel Halt  23:26-23:26-  124.7 5661mECRPatna, Bihar
1.8/==/BTABihta (2)  23:28-23:28-  126.7 5662mECRDistt: Patna, Bihar
1.9/==/VHCHChakki Block Cabin  23:35-23:35-  133.0 5663mECRNational Highway 30, Bihar
1.10/==/KWRKoelwar (2)X  23:38-23:38-  135.5 5665mECRNational Highway 30, Bihar
1.11/==/KUAKulharia (2)  23:41-23:41-  139.0 5661mECRChandi Sahar Rd, Bihar
1.12/==/JMIRJamira  23:47-23:47-  144.0 56 ECRPatna, Bihar
2/==/ARAAra Junction (3)•X  23:52+923:54+92m--148.96463mECRDistt: Bhojpur Ph 06182-233411, Bihar
2.1/==/JGWLJagjivan  23:57-23:57-  152.1 6459mECRBuxar, Bihar
2.2/==/KRSKarisath (2)  00:03-00:03-  258.9 6465mECRKarisath, Bihar
2.3/==/KYAKauriya  00:07-00:07-  262.5 6461mECRBuxar, Bihar
2.4/==/XSANSarvodaya Halt  00:09-00:09-  264.5 6463mECRBuxar, Bihar
2.5/==/RNTERamanand TewaryX  00:10-00:10-  266.5 6463mECRBuxar, Bihar
2.6/==/BEABihiya (3)  00:14-00:14-  270.4 6467mECRBehea, Bihar
2.7/==/ASJPAmar Shahid Jagdev Prasad Halt  00:18-00:18-  274.2 6463mECRArrah Buxar Rd, Bihar
2.8/==/BYNBanahi (2)  00:20-00:20-  276.3 6467mECRBanahi, Bihar
2.9/==/SKRISikaria  00:23-00:23-  280.2 6463mECRKuawan Tikathi Rd, Bihar
2.10/==/RPRRaghunathpur (4)  00:28-00:28-  285.1 6469mECRRaghunathpur, Bihar
2.11/==/VKDHVeer Kunwar Singh Dharauli Halt  00:32-00:32-  289.4 6465mECRArrah Buxar Rd, Bihar
2.12/==/TWGTwining GanjX  00:36-00:36-  293.5 6470mECRArrah Buxar Rd, Bihar
2.13/==/DUREDumraon (3)  00:43-00:43-  2101.1 6470mECRDumraon, Bihar
2.14/==/BUEBaruna  00:49-00:49-  2108.2 6465mECRArrah Buxar Rd, Bihar
3/==/BXRBuxar (3)  00:58+601:00+72m--2117.44867mECRBuxar, Bihar
3.1/==/PWXPPawani Kumarpur Halt  01:11-01:11-  2126.3 4866mECRSukarwallia Rd, Bihar
3.2/==/CSAChausa (2)  01:14-01:14-  2128.4 4868mECRState Highway 14, Bihar
3.3/==/BQWBarakalanX  01:21-01:21-  2134.3 4868mECRState Highway 14, Bihar
3.4/==/GMRGahmar (2)  01:25-01:25-  2137.6 4868mECRDistt: Ghazipur, Uttar Pradesh
3.5/==/KKRHKarahiaX  01:30-01:30-  2141.7 4872mECRPhooli Rd, Uttar Pradesh
3.6/==/BWHBhadaura (2)  01:35-01:35-  2145.8 4869mECRGhazipur, Uttar Pradesh
3.7/==/USKUsia Khas  01:40-01:40-  2149.4 4869mECRDildarnagar, Uttar Pradesh
3.8/==/DLNDildarnagar Junction (2)  01:45-01:45-  2153.6 4872mECRDildarnagar, Uttar Pradesh
3.9/==/DRVDarauli (2)X  01:54-01:54-  2160.7 4870mECRDarauli, Uttar Pradesh
3.10/==/ZNAZamania (2)  02:02-02:02-  2167.1 4877mECRGhazipur, Uttar Pradesh
3.11/==/BHCLBahora Chandil  02:08-02:08-  2172.1 4872mECRDhanapur Avahi Rd, Uttar Pradesh
3.12/==/DHADheena  02:17-02:17-  2179.5 4874mECRDheena, Uttar Pradesh
3.13/==/TLAMTulsi AshramX  02:26-02:26-  2186.8 4877mECRState Highway 69, Uttar Pradesh
3.14/==/SLDSakaldiha (2)  02:34-02:34-  2193.1 4881mECRState Highway 69, Uttar Pradesh
3.15/==/KCAKuchman (2)  02:44-02:44-  2200.8 4879mECRKuchman, Uttar Pradesh
3.16/==/EOCMEOCM  02:46-02:46-  2202.7 4879mECRChandauli Mjhwr, Uttar Pradesh
3.17/==/MGMYMughal Sarai Marshalling Yard  02:54-02:54-  2208.6 4881mECRMughalsarai, Uttar Pradesh
4/==/MGSMughal Sarai Junction (8)  02:52 02:57+003:07+415 10m--2211.46683mECRDistt: Chandauli Pin 232101, Uttar Pradesh
4.1/==/NEWCNew West CabinX  03:08-03:08-  2212.6 6680mECRMughal Sarai, Uttar Pradesh
4.2/==/JEPJeonathpur (2)X  03:14-03:14-  2219.2 6683mNCRVaranasi, Uttar Pradesh
4.3/==/ARWAhraura Road (4)X  03:20-03:20-  2225.1 6685mNCRDist. Mirzapur - 231305, Uttar Pradesh
4.4/==/KYTKailahat (4)  03:27-03:27-  2233.6 6683mNCRKailahat, Uttar Pradesh
4.5/==/CARChunar Junction (5)  03:36-03:36-  2243.3 6685mNCRChunar Junction, Uttar Pradesh
4.6/==/DAPDagmagpurX  03:43-03:43-  2250.7 6688mNCRDagmagpur, Uttar Pradesh
4.7/==/PREPaharaX  03:50-03:50-  2258.7 6687mNCRNational Highway 7, Uttar Pradesh
4.8/==/JHGJhingura  03:57-03:57-  2266.2 6685mNCRNational Highway 7, Uttar Pradesh
4.9/==/MZPMirzapur (3)  04:05-04:05-  2274.5 6688mNCRMirzapur, Uttar Pradesh
4.10/==/BDLVindhyachal (3)  04:11-04:11-  2281.9 6688mNCRMirzapur, Uttar Pradesh
4.11/==/BEOBiroheX  04:16-04:16-  2286.6 6683mNCRNational Highway 76, Uttar Pradesh
4.12/==/GAEGaipura (4)X  04:23-04:23-  2294.2 6686mNCRGaipura, Uttar Pradesh
4.13/==/JIAJigna (1)  04:29-04:29-  2301.0 6694mNCRNational Highway 76, Uttar Pradesh
4.14/==/MNFManda Road  04:37-04:37-  2309.4 6693mNCRNH 76, Uttar Pradesh
4.15/==/UNDUnchdihX  04:44-04:44-  2317.5 6694mNCRUnchdih, Uttar Pradesh
4.16/==/MJAMeja Road (4)X  04:51-04:51-  2325.6 6694mNCRDistrict Allahabad, Uttar Pradesh
4.17/==/BEPBheerpur  05:02-05:02-  2336.9 6694mNCRNH 76, Uttar Pradesh
4.18/==/KCNKarchanaX  05:10-05:10-  2346.0 6694mNCRKarchana, Uttar Pradesh
4.19/==/COIChheoki Junction (3)X  05:18-05:18-  2355.0 6696mNCRDist.-Allahabad, Uttar Pradesh
4.20/==%NYNNaini Junction (4)  05:20-05:20-  2356.6 6698mNCRAllahabad, Uttar Pradesh
4.21%==%LKJNLink Junction Cabin  05:24-05:24-  2361.1 6694mNCRAllahabad, Uttar Pradesh
4.22%==%IDGJIradatganj (3)X  05:28-05:28-  2366.0 6699mNCRAllahabad, Uttar Pradesh
4.23%==%JSRJasra (2)X  05:34-05:34-  2372.2 6697mNCRJasra, Uttar Pradesh
4.24%==%MFXMadaraha  05:39-05:39-  2377.8 66103mNCRNational Highway 76, Uttar Pradesh
4.25%==%LOGLohgara (2)X  05:45-05:45-  2384.1 66112mNCRLohgara, Uttar Pradesh
4.26%==%SRJShankargarh (3)  05:54-05:54-  2394.0 66132mNCRShankargarh, Uttar Pradesh
4.27%==%MJHRMajhiari  06:03-06:03-  2403.7 66145mNCRNational Highway 76, Uttar Pradesh
4.28%==%BRGBargarh  06:09-06:09-  2410.8 66166mNCRBargarh, Uttar Pradesh
4.29%==%KTDDKataiya DandiX  06:14-06:14-  2416.3 66168mNCRKataiya, Uttar Pradesh
4.30%==%DBRDabhaura (2)  06:23-06:23-  2426.5 66201mNCRDabhaura, Uttar Pradesh
4.31%==%PNHIPanhaiX  06:33-06:33-  2436.9 66214mNCRManikpur, Uttar Pradesh
4.32%==%MKPManikpur Junction (4)  06:44-06:44-  2449.0 66250mNCRManikpur, Uttar Pradesh
4.33%==%BNSPBansapahar (1)  06:47-06:47-  2452.5 66253mWCRBansapahar, Uttar Pradesh
4.34%==%BQFBarah MuafiX  06:51-06:51-  2456.9 66264mWCRBarahmuafi, Uttar Pradesh
4.35%==%MKDMarkundi  06:59-06:59-  2464.9 66270mWCRState Highway 11, Madhya Pradesh
4.36%==%TKYRTikaria (2)X  07:06-07:06-  2472.8 66268mWCRMDR 11, Madhya Pradesh
4.37%==%EDAItwan DundailaX  07:13-07:13-  2480.4 66320mWCRMajhgawa, Madhya Pradesh
4.38%==%MJGMajhagawan  07:18-07:18-  2485.9 66343mWCRMajhgawa, Madhya Pradesh
4.39%==%CTHRChitahra  07:23-07:23-  2491.7 66367mWCRMDR 11, Madhya Pradesh
4.40%==%KTHAKhutahaX  07:30-07:30-  2499.2 66332mWCRMDR 11, Madhya Pradesh
4.41%==%JTWJaitwar (2)X  07:37-07:37-  2506.7 66321mWCRJaitwar, Madhya Pradesh
4.42%==%HATIHati  07:41-07:41-  2511.5 66310mWCRBhad, Madhya Pradesh
4.43%==%SAGMSagma (1)  07:49-07:49-  2520.5 66337mWCRSatna, Madhya Pradesh
5%==%STASatna Junction (3)X  07:55+4908:05+5210m12526.784322mWCRSatna, Madhya Pradesh
5.1%==%LGCELagargawan (2)  08:13-08:13-  2538.3 84319mWCRLagargawan, Madhya Pradesh
5.2%==%UHRUnchhera (2)  08:20-08:20-  2547.9 84331mWCRUnchhera, Madhya Pradesh
5.3%==%MYRMaihar (3)  08:30-08:30-  2562.1 84353mWCRMaihar Railway Station, Madhya Pradesh
5.4%==%BUUBhadanpur (2)  08:40-08:40-  2575.6 84362mWCRNational Highway 7, Madhya Pradesh
5.5%==%UDRAmdara (2)  08:49-08:49-  2588.2 84376mWCRNational Highway 34, Madhya Pradesh
5.6%==%PKRDPakara Road (2)  08:56-08:56-  2597.9 84381mWCRPakara, Madhya Pradesh
5.7%==%JKEJukehi (3)  09:03-09:03-  2607.7 84402mWCRJukehi, Madhya Pradesh
5.8%==%PTWAPatwara (2)  09:09-09:09-  2616.1 84398mWCRNational Highway 34 Distric Katni Madhya Pradesh, Madhya Pradesh
6%==|KTEKatni Junction (6)X  09:15+4509:20+455m--2625.155387mWCRKatni, Madhya Pradesh
6.1%==|KTESKatni South  09:22-09:22-  2627.0 55386mWCRKatni, Madhya Pradesh
6.2|==|MDRRMadhavnagar Road (2)  09:26-09:26-  2630.3 55398mWCRMadhavnagar, Madhya Pradesh
6.3|==|NWRNiwar (2)  09:34-09:34-  2638.2 55412mWCRPipraundh, Madhya Pradesh
6.4|==|SNRRSansarpur (2)  09:43-09:43-  2646.0 55436mWCRNational Highway 7, Madhya Pradesh
6.5|==|SBDSleemanabad Road (2)  09:51-09:51-  2652.9 55434mWCRSleemanabad, Madhya Pradesh
6.6|==|DDCEDundi (2)X  10:01-10:01-  2662.4 55415mWCRDundi, Madhya Pradesh
6.7|==|SHRSihora Road (2)X  10:18-10:18-  2677.3 55388mWCRJabalpur, Madhya Pradesh
6.8|==|GSPRGosalpur (2)X  10:30-10:30-  2688.4 55396mWCRJabalpur, Madhya Pradesh
6.9|==|DOEDeori (2)  10:41-10:41-  2699.0 55392mWCRJabalpur, Madhya Pradesh
6.10|==|ADTLAdhartal (2)  10:51-10:51-  2707.8 55393mWCRJabalpur, Madhya Pradesh
7|==|JBPJabalpur Junction (4)  10:50 11:00+3611:00 11:10+3910m12715.970416mWCRJabalpur, Madhya Pradesh
7.1|==|HBGHowbagh Jabalpur (2)  11:12-11:12-  2718.0 70405mSECRJabalpur, Madhya Pradesh
7.2|==|MMLMadan Mahal (3)  11:13-11:13-  2719.2 70428mWCRJabalpur, Madhya Pradesh
7.3|==|KEQKachhpura (2)  11:14-11:14-  2721.0 70392mWCRJabalpur, Madhya Pradesh
7.4|==|BRGTBheraghat (2)  11:24-11:24-  2732.4 70389mWCRBheraghat, Madhya Pradesh
7.5|==|BHTNBhitoni (2)  11:35-11:35-  2745.5 70377mWCRJabalpur, Madhya Pradesh
7.6|==|BMRBikrampur (2)X  11:45-11:45-  2757.1 70353mWCRBikrampur Dist Narsingpur., Madhya Pradesh
7.7|==|SRIDShridham (3)X  11:55-11:55-  2768.8 70373mWCRShridham, Madhya Pradesh
7.8|==!KKBKarak Bel (2)  12:09-12:09-  2784.3 70375mWCRKarak Bel, Madhya Pradesh
7.9|==!BELDBelkhera (2)  12:12-12:12-  2788.7 70367mWCRState Highway 22, Madhya Pradesh
7.10!==|GPCGhatpindrai (2)X  12:17-12:17-  2794.2 70366mWCRGhatpindra, Madhya Pradesh
7.11|==|NUNarsinghpur (2)  12:22-12:22-  2800.0 70365mWCRNarsimhapur, Madhya Pradesh
7.12|==|KYKareli (2)X  12:36-12:36-  2815.8 70361mWCRKareli, Madhya Pradesh
7.13|==|KFYKarapgaon (2)X  12:43-12:43-  2824.4 70363mWCRNational Highway 26, Madhya Pradesh
7.14|==|BNEBohani (2)  12:49-12:49-  2831.4 70361mWCRNarsinghpur, Madhya Pradesh
7.15|==|GARGadarwara (2)X  13:00-13:00-  2844.3 70352mWCRNarsinghpur, Madhya Pradesh
7.16|==|SCKRSalichauka Road (2)X  13:12-13:12-  2858.2 70355mWCRGadarwara, Madhya Pradesh
7.17|==|JHTJunehta (2)X  13:21-13:21-  2868.3 70353mWCRState Highway 22, Madhya Pradesh
7.18|==|BKHBankhedi (2)  13:26-13:26-  2874.3 70351mWCRBankheri, Madhya Pradesh
7.19|==|PPIPipariya (3)X  13:42-13:42-  2893.7 70338mWCRPiparia, Madhya Pradesh
7.20|==|SXFSobhapur (2)X  13:50-13:50-  2902.3 70338mWCRState Highway 22, Madhya Pradesh
7.21|==|SGPSohagpur (2)  13:58-13:58-  2911.4 70340mWCRSohagpur, Madhya Pradesh
7.22|==|GMDGuramkhedi (2)X  14:06-14:06-  2921.4 70337mWCRGuramkhedi, Madhya Pradesh
7.23|=-|BGTABagratawa (2)  14:17-14:17-  2934.5 70338mWCRBagra Tawa, Madhya Pradesh
7.24|-=|SQLSontalai (2)  14:23-14:23-  2941.3 70329mWCRItarsi, Madhya Pradesh
7.25|==|GROGurra (2)  14:31-14:31-  2950.3 70327mWCRItarsi, Madhya Pradesh
8|==|ETItarsi Junction (7)X  14:40+4614:50+4610m22960.964329mWCRItarsi 461111, Madhya Pradesh
8.1/==/JUHJujharpur CabinX  14:51-14:51-  2962.1 64322mWCRItarsi, Madhya Pradesh
8.2/==/JHPJujharpur  14:53-14:53-  2964.4 64328mCRItarsi, Madhya Pradesh
8.3/==/KRTHKiratgarh (2)  15:00-15:00-  2971.7 64369mCRItarsi, Madhya Pradesh
8.4/==/KSLAKesla (2)  15:05-15:05-  2977.4 64410mCRNH69, Madhya Pradesh
8.5/==/TAKUTaku (2)X  15:11-15:11-  2983.4 64390mCRItarsi, Madhya Pradesh
8.6/==/SAHLSaheli (2)  15:15-15:15-  2987.4 64388mCRItarsi, Madhya Pradesh
8.7/==/KQEKala Akhar (2)X  15:21-15:21-  2994.0 64376mCRItarsi, Madhya Pradesh
8.8/==/POXPola Patthar (2)  15:27-15:27-  21000.3 64392mCRBetul, Madhya Pradesh
8.9/==/DOHDhodramohar (2)  15:35-15:35-  21008.6 64376mCRBetul, Madhya Pradesh
8.10/==/MGRDMagardoh (2)  15:40-15:40-  21014.3 64393mCRBetul, Madhya Pradesh
8.11/==/BBTRBarbatpur (3)  15:45-15:45-  21019.7 64394mCRBetul, Madhya Pradesh
8.12/==/GDYAGhoradongri (3)X  15:56-15:56-  21031.3 64 CRBetul, Madhya Pradesh
8.13/==/DHQDharakhoh (2)X  16:11-16:11-  21046.4 64482mCRBetul, Madhya Pradesh
8.14/==/MJYMaramjhiri (2)  16:23-16:23-  21059.2 64642mCRBetul, Madhya Pradesh
8.15/==/BZUBetul (3)  16:30-16:30-  21067.2 64644mCRBetul, Madhya Pradesh
8.16/==/MALKMalkapur Road (1)X  16:36-16:36-  21073.6 64668mCRBetul, Madhya Pradesh
8.17/==/BYSBarsali (2)X  16:43-16:43-  21080.3 64699mCRAmla, Madhya Pradesh
8.18/==/AMLAAmla Junction (5)  16:52-16:52-  21090.1 64733mCRAmla Distt. Betul, Madhya Pradesh
8.19/==/JKRJaulkhera (2)  17:03-17:03-  21101.8 64759mCRNH 69, Madhya Pradesh
8.20/==/MTYMultai (2)  17:13-17:13-  21113.0 64762mCRMultai, Madhya Pradesh
8.21/==/HTNHatna Pur (2)  17:22-17:22-  21122.4 64730mCRNH 69, Madhya Pradesh
8.22/==/CCDChichonda (3)X  17:28-17:28-  21128.2 64703mCRNH 69 District Chhindwara, Madhya Pradesh
8.23/==/GDKPGhundankhapa (2)X  17:36-17:36-  21137.4 64611mCRMohi, Madhya Pradesh
8.24/==/TEOTeegaon (2)  17:43-17:43-  21145.0 64 CRBetul, Madhya Pradesh
8.25/==/PARPandhurna (2)  17:52-17:52-  21153.8 64481mCRDistt: Chhindwara, Madhya Pradesh
8.26/==/DDMTDarimeta (2)X  18:00-18:00-  21162.3 64473mCRNarkher, Maharashtra
8.27/==/NRKRNarkher Junction (4)  18:09-18:09-  21172.1 64411mCRNarkher, Maharashtra
8.28/==/TNHTinkheda (2)XO  18:16-18:16-  21179.1 64415mCRSH 246, Maharashtra
8.29/==/KLBAKalambha (2)  18:23-18:23-  21187.2 64406mCRSH 248, Maharashtra
8.30/==/KATLKatol (2)  18:33-18:33-  21197.2 64 CRKatol, Maharashtra
8.31/==/MERMetpanjra (3)  18:41-18:41-  21206.4 64438mCRSH 248, Maharashtra
8.32/==/SNKBSonkhamb (2)X  18:48-18:48-  21213.4 64403mCRSH 248, Maharashtra
8.33/==/KOHLKohli (2)  18:56-18:56-  21221.7 64368mCRSH 250, Maharashtra
8.34/==/KSWRKalmeshwar (2)X  19:07-19:07-  21234.0 64336mCRKalameshwar, Maharashtra
8.35/==/BWRABharatwada (2)  19:17-19:17-  21244.7 64322mCRNagpur, Maharashtra
8.36/==/GNQGodhani (2)  19:23-19:23-  21251.0 64312mCRNagpur, Maharashtra
9/==/NGPNagpur Junction (8)X  19:35 19:30+4619:45 19:40+4510m221258.154314mCRNagpur 440001, Maharashtra
9.1/==/MIBNagpur Moti Bagh (1)X  19:41-19:41-  21258.9 54309mCRNagpur, Maharashtra
9.2/==/AJNIAjni (3)  19:43-19:43-  21261.1 54310mCRNagpur 440003, Maharashtra
9.3/==/KRIKhapri (2)X  19:54-19:54-  21270.4 54312mCRNagpur, Maharashtra
9.4/==/GMGGumgaon (2)  20:01-20:01-  21277.0 54302mCRNagpur, Maharashtra
9.5/==/BTBRButi Bori (4)  20:11-20:11-  21285.7 54269mCRButi Bori, Maharashtra
9.6/==/BOKBorkhediX  20:19-20:19-  21293.5 54268mCRWardha, Maharashtra
9.7/==/SNISindi (2)  20:32-20:32-  21305.0 54258mCRWardha, Maharashtra
9.8/==/TGPTuljapur (2)  20:41-20:41-  21312.9 54259mCRTuljapur, Maharashtra
9.9/==/SLORSeloo Road  20:52-20:52-  21323.0 54256mCRMSH3, Maharashtra
9.10/==/VADRWarud  21:01-21:01-  21330.8 54261mCRSewagram, Maharashtra
9.11/==/SEGMSewagram Junction (5)  21:05-21:05-  21334.3 54279mCRWardha, Maharashtra
9.12/==/CHJCChitoda  21:08-21:08-  21337.6 54265mCRChitoda, Maharashtra
9.13/==/BPKBhugaon (3)  21:16-21:16-  21344.7 54267mCRWardha, Maharashtra
9.14/==/SNNSonegaon (2)  21:24-21:24-  21351.2 54262mCRWardha, Maharashtra
9.15/==/WGWagholi (2)  21:33-21:33-  21359.6 54238mCRWagholi, Maharashtra
9.16/==/HGTHinganghat (3)  21:42-21:42-  21367.4 54228mCRHinganghat, Maharashtra
9.17/==/YNAYenor  21:48-21:48-  21372.7 54221mCRMumbai, Maharashtra
9.18/==/NGINagri  22:00-22:00-  21384.2 54230mCRHinganghat, Maharashtra
9.19/==/CKNIChikni Road (2)X  22:13-22:13-  21395.9 54211mCRChandrapur, Maharashtra
9.20/==/WRRWarora (2)  22:25-22:25-  21406.5 54214mCRWarora, Maharashtra
10/==/MJRIMajri Junction (3)X  22:39+5422:40+541m--21418.929198mCRDist. Chandrapur, Maharashtra
10.1|--|MJKNMajri Khadan  22:51-22:51-  21424.4 29195mCRPatala, Maharashtra
10.2|--|WANIWani (1)  23:06-23:06-  21431.9 29212mCRWani, Maharashtra
10.3|--|KAYRKayar  23:51-23:51-  21453.6 29231mCRState Highway 233, Maharashtra
10.4|--|LNTLingti  00:50-00:50-  31482.4 29227mCRState Highway 234, Maharashtra
10.5|--|PMKTPimpal Khuti (1)  01:22-01:22-  31498.3 29230mCRPimpalkhuti, Maharashtra
11|--|ADBAdilabad (3)  02:05+1802:10+235m131519.462248mSCRAdilabad, Telangana
11.1|--|UMMUmram  02:21-02:21-  31530.3 62286mSCRAdilabad Dist, Telangana
11.2|--|TLMGTalmadugu  02:26-02:26-  31535.5 62299mSCRAdilabad Dist, Telangana
11.3|--|KSAEKosai  02:32-02:32-  31542.2 62329mSCRAdilabad Dist., Telangana
11.4|--|ABXAmbari  02:46-02:46-  31556.7 62329mSCRKinwat, Maharashtra
12|--|KNVTKinwat (2)  02:54+3102:55+321m--31564.761319mSCRKinwat, Maharashtra
12.1|--|BHBKBodhadi Bujrug  03:09-03:09-  31579.4 61357mSCRKinwat, Maharashtra
12.2|--|DHNRDhanora Deccan  03:24-03:24-  31594.0 61416mSCRKinwat, Maharashtra
12.3|--|MHMBMahimba  03:31-03:31-  31601.3 61404mSCRNanded, Maharashtra
13|--|SHSKSahasrakund  03:39+2803:40+311m--31609.549402mSCRNanded, Maharashtra
13.1|--|JXNJironaX  03:48-03:48-  31615.8 49390mSCRNanded, Maharashtra
14|--|HEMHimayatnagar new halt!!  03:59+2604:00+261m--31625.137398mSCRNanded, Maharashtra
14.1|--|KDBRKhadki Bazar  04:06-04:06-  31628.6 37402mSCRMSH 3, Maharashtra
14.2|--|JLGJalgaon Deccan  04:14-04:14-  31633.7 37413mSCRMSH 3, Maharashtra
14.3|--|PRWAParwakhurd  04:20-04:20-  31637.2 37410mSCRMSH 3, Maharashtra
14.4|--|HDGRHadgaon Road  04:30-04:30-  31643.2 37421mSCRNanded, Maharashtra
14.5|--|DVNDevthana  04:49-04:49-  31654.8 37440mSCRNanded, Maharashtra
14.6|--|TBUTharban  04:52-04:52-  31657.0 37431mSCRMSH 3, Maharashtra
14.7|--|BOKRBhokar  04:59-04:59-  31661.2 37460mSCRBhokar, Maharashtra
14.8|--|BMBEBimbari  05:10-05:10-  31668.2 37463mSCRBhokar, Maharashtra
14.9|--|JMBLJambhali  05:18-05:18-  31672.7 37434mSCRBhokar, Maharashtra
14.10|--|MUEMudkhed Junction (4)X  05:34-05:34-  31682.4 37378mSCRMudkhed, Maharashtra
14.11|--|MGCMugat  05:48-05:48-  31691.5 37360mSCRHuzur Sahib Nanded, Maharashtra
14.12|--|PARDPathrad  05:54-05:54-  31694.8 37363mSCRHuzur Sahib Nanded, Maharashtra
14.13|--|MTDIMaltekdi  06:05-06:05-  31702.0 37362mSCRNanded, Maharashtra
15|--|NEDHazur Sahib Nanded (4)X  06:10+1:0306:15+1:065m--31704.733366mSCRNanded, Maharashtra
15.1|--|WNGWanegaon  06:27-06:27-  31711.2 33371mSCRChudawa, Maharashtra
15.2|--|LBGLimbgaon (2)  06:35-06:35-  31715.8 33390mSCRHuzur Sahib Nanded, Maharashtra
15.3|--|CRUChudawa (1)  06:52-06:52-  31725.4 33392mSCRHingoli, Maharashtra
16|--|PAUPurna Junction (4)  07:10+1---31735.3-384mSCRPurna, Maharashtra
Scroll to Top
Scroll to Bottom